Time;durP1;ratioP1;P1;durP2;ratioP2;P2;SDS_P1;SDS_P2;PMS_P1;PMS_P2;Temp;Humidity;BMP_temperature;BMP_pressure;BME280_temperature;BME280_humidity;BME280_pressure;Samples;Min_cycle;Max_cycle;Signal;HPM_P1;HPM_P2
2023/08/13 00:01:29;;;;;;;;;;;;;;;23.95;42.46;99859.53;5054505;28;20332;-78
2023/08/13 00:03:54;;;;;;;;;;;;;;;23.93;43.33;99846.31;5054331;28;19985;-78
2023/08/13 00:06:19;;;;;;;;;;;;;;;23.92;42.57;99851.97;5072231;28;19919;-78
2023/08/13 00:08:45;;;;;;;;;;;;;;;23.96;42.53;99855.78;5054343;28;19923;-78
2023/08/13 00:11:11;;;;;;;;;;;;;;;23.92;42.95;99846.56;5072203;28;20351;-78
2023/08/13 00:13:37;;;;;;;;;;;;;;;23.93;42.95;99840.13;5054196;28;19912;-79
2023/08/13 00:16:02;;;;;;;;;;;;;;;23.93;42.41;99838.22;5072227;28;19939;-78
2023/08/13 00:18:28;;;;;;;;;;;;;;;23.89;42.51;99831.72;5054476;28;19912;-78
2023/08/13 00:20:53;;;;;;;;;;;;;;;23.85;43.64;99833.31;5054651;28;20015;-78
2023/08/13 00:23:18;;;;;;;;;;;;;;;23.82;43.59;99830.31;5072636;28;19912;-78
2023/08/13 00:25:44;;;;;;;;;;;;;;;23.75;43.89;99830.50;5072208;28;20380;-78
2023/08/13 00:28:09;;;;;;;;;;;;;;;23.74;44.26;99832.38;5072710;28;19920;-78
2023/08/13 00:30:35;;;;;;;;;;;;;;;23.69;43.50;99834.22;5054865;28;19913;-78
2023/08/13 00:33:00;;;;;;;;;;;;;;;23.70;43.48;99828.56;5075841;28;19955;-78
2023/08/13 00:35:25;;;;;;;;;;;;;;;23.69;43.20;99832.34;5086830;28;19908;-79
2023/08/13 00:37:50;;;;;;;;;;;;;;;23.60;44.25;99838.47;5072028;28;20012;-78
2023/08/13 00:40:16;;;;;;;;;;;;;;;23.58;44.36;99840.59;5071757;28;19928;-78
2023/08/13 00:42:41;;;;;;;;;;;;;;;23.58;43.91;99840.59;5071694;28;20305;-78
2023/08/13 00:45:06;;;;;;;;;;;;;;;23.59;44.20;99847.63;5071628;28;20004;-79
2023/08/13 00:47:32;;;;;;;;;;;;;;;23.63;43.44;99843.34;5053849;28;19923;-78
2023/08/13 00:49:58;;;;;;;;;;;;;;;23.61;43.79;99838.22;5072193;28;19913;-78
2023/08/13 00:52:23;;;;;;;;;;;;;;;23.52;45.09;99838.91;5072214;28;20307;-78
2023/08/13 00:54:48;;;;;;;;;;;;;;;23.44;44.22;99841.00;5054764;28;19974;-79
2023/08/13 00:57:14;;;;;;;;;;;;;;;23.36;44.17;99837.94;5074250;28;20385;-79
2023/08/13 00:59:39;;;;;;;;;;;;;;;23.27;44.82;99842.16;5071864;28;20022;-78
2023/08/13 01:02:04;;;;;;;;;;;;;;;23.15;43.81;99836.91;5072005;28;20335;-78
2023/08/13 01:04:29;;;;;;;;;;;;;;;23.08;45.41;99844.38;5053612;28;20373;-78
2023/08/13 01:07:02;;;;;;;;;;;;;;;23.01;44.19;99841.03;5071723;28;19985;-78
2023/08/13 01:09:40;;;;;;;;;;;;;;;22.98;44.26;99841.53;5071641;28;19912;-78
2023/08/13 01:12:17;;;;;;;;;;;;;;;22.96;44.48;99838.28;5071729;28;19912;-77
2023/08/13 01:14:55;;;;;;;;;;;;;;;22.94;45.59;99838.53;5071815;28;19912;-78
2023/08/13 01:17:22;;;;;;;;;;;;;;;22.95;45.88;99836.66;5071517;28;19912;-78
2023/08/13 01:19:47;;;;;;;;;;;;;;;22.91;44.48;99836.34;5071737;28;19912;-78
2023/08/13 01:22:12;;;;;;;;;;;;;;;22.86;46.16;99840.88;5071605;28;19991;-79
2023/08/13 01:24:38;;;;;;;;;;;;;;;22.80;44.86;99840.81;5071823;28;19999;-78
2023/08/13 01:27:09;;;;;;;;;;;;;;;22.77;46.37;99837.78;5071827;28;19919;-78
2023/08/13 01:29:43;;;;;;;;;;;;;;;22.75;45.95;99842.59;5071937;28;20372;-78
2023/08/13 01:32:12;;;;;;;;;;;;;;;22.69;46.56;99843.59;5071639;28;19956;-78
2023/08/13 01:34:37;;;;;;;;;;;;;;;22.67;45.34;99841.16;5053450;28;19912;-78
2023/08/13 01:37:05;;;;;;;;;;;;;;;22.65;45.86;99837.09;5054113;28;20030;-78
2023/08/13 01:39:30;;;;;;;;;;;;;;;22.63;46.59;99841.91;5075571;28;19912;-78
2023/08/13 01:41:56;;;;;;;;;;;;;;;22.61;45.37;99836.75;5075676;28;20014;-78
2023/08/13 01:44:21;;;;;;;;;;;;;;;22.59;45.35;99843.47;5075335;28;19916;-77
2023/08/13 01:46:47;;;;;;;;;;;;;;;22.52;46.08;99849.03;5075663;28;19912;-77
2023/08/13 01:49:12;;;;;;;;;;;;;;;22.46;46.26;99839.25;5057412;28;19916;-77
2023/08/13 01:51:38;;;;;;;;;;;;;;;22.40;48.24;99846.44;5075298;28;19912;-78
2023/08/13 01:54:03;;;;;;;;;;;;;;;22.35;47.30;99842.88;5075601;28;19923;-77
2023/08/13 01:56:28;;;;;;;;;;;;;;;22.35;47.26;99834.78;5057275;28;20374;-77
2023/08/13 01:58:53;;;;;;;;;;;;;;;22.35;46.93;99840.19;5074890;28;19913;-77
2023/08/13 02:01:19;;;;;;;;;;;;;;;22.36;47.36;99839.13;5075214;28;20364;-78
2023/08/13 02:03:44;;;;;;;;;;;;;;;22.34;47.03;99846.63;5074758;28;19920;-78
2023/08/13 02:06:09;;;;;;;;;;;;;;;22.32;47.09;99849.56;5074570;28;19916;-78
2023/08/13 02:08:35;;;;;;;;;;;;;;;22.30;46.89;99845.50;5074634;28;19962;-78
2023/08/13 02:11:00;;;;;;;;;;;;;;;22.27;47.18;99849.47;5074509;28;20455;-78
2023/08/13 02:13:25;;;;;;;;;;;;;;;22.19;48.46;99853.38;5074639;28;19912;-78
2023/08/13 02:15:50;;;;;;;;;;;;;;;22.12;48.21;99850.03;5056437;28;20397;-78
2023/08/13 02:18:16;;;;;;;;;;;;;;;22.08;48.12;99848.09;5074439;28;19919;-78
2023/08/13 02:20:41;;;;;;;;;;;;;;;22.00;48.50;99851.97;5075152;28;19912;-78
2023/08/13 02:23:06;;;;;;;;;;;;;;;21.96;48.78;99850.84;5074665;28;19912;-78
2023/08/13 02:25:31;;;;;;;;;;;;;;;21.90;47.30;99859.88;5074922;28;19917;-78
2023/08/13 02:27:57;;;;;;;;;;;;;;;21.82;49.11;99852.22;5074802;28;20393;-78
2023/08/13 02:30:22;;;;;;;;;;;;;;;21.82;48.35;99854.91;5074736;28;19967;-77
2023/08/13 02:32:47;;;;;;;;;;;;;;;21.81;48.04;99848.72;5057053;28;20387;-77
2023/08/13 02:35:13;;;;;;;;;;;;;;;21.79;48.78;99852.72;5074354;28;19912;-79
2023/08/13 02:37:38;;;;;;;;;;;;;;;21.78;47.36;99857.28;5074613;28;20004;-79
2023/08/13 02:40:06;;;;;;;;;;;;;;;21.69;48.86;99853.34;5074623;28;20328;-77
2023/08/13 02:42:31;;;;;;;;;;;;;;;21.60;50.13;99856.69;5074325;28;19966;-79
2023/08/13 02:44:56;;;;;;;;;;;;;;;21.56;50.26;99851.81;5073982;28;19920;-78
2023/08/13 02:47:22;;;;;;;;;;;;;;;21.54;48.51;99855.75;5074588;28;19912;-79
2023/08/13 02:49:47;;;;;;;;;;;;;;;21.55;49.35;99857.38;5056205;28;19913;-78
2023/08/13 02:52:12;;;;;;;;;;;;;;;21.47;49.38;99861.28;5073962;28;19920;-78
2023/08/13 02:54:37;;;;;;;;;;;;;;;21.42;49.69;99855.81;5073853;28;20381;-79
2023/08/13 02:57:03;;;;;;;;;;;;;;;21.40;50.27;99865.16;5055792;28;19970;-78
2023/08/13 02:59:28;;;;;;;;;;;;;;;21.39;50.09;99866.22;5074030;28;19920;-77
2023/08/13 03:01:53;;;;;;;;;;;;;;;21.41;49.40;99861.44;5073999;28;20381;-77
2023/08/13 03:04:18;;;;;;;;;;;;;;;21.42;50.09;99861.19;5073930;28;19954;-78
2023/08/13 03:06:44;;;;;;;;;;;;;;;21.44;50.38;99867.13;5073705;28;19918;-77
2023/08/13 03:09:09;;;;;;;;;;;;;;;21.42;49.62;99865.75;5073611;28;19912;-76
2023/08/13 03:11:35;;;;;;;;;;;;;;;21.38;49.15;99872.66;5073558;28;19992;-78
2023/08/13 03:14:00;;;;;;;;;;;;;;;21.34;50.28;99869.63;5073397;28;19982;-78
2023/08/13 03:16:25;;;;;;;;;;;;;;;21.31;49.12;99862.06;5055351;28;19971;-79
2023/08/13 03:18:50;;;;;;;;;;;;;;;21.31;50.93;99869.31;5055463;28;20004;-78
2023/08/13 03:21:16;;;;;;;;;;;;;;;21.29;50.89;99869.53;5073547;28;19919;-79
2023/08/13 03:23:41;;;;;;;;;;;;;;;21.28;51.55;99865.22;5073654;28;19913;-78
2023/08/13 03:26:06;;;;;;;;;;;;;;;21.29;50.35;99874.09;5055425;28;19924;-78
2023/08/13 03:28:31;;;;;;;;;;;;;;;21.27;49.96;99870.84;5073484;28;19969;-78
2023/08/13 03:30:58;;;;;;;;;;;;;;;21.29;49.80;99868.72;5084520;28;19920;-77
2023/08/13 03:33:23;;;;;;;;;;;;;;;21.33;50.45;99868.00;5082031;28;20009;-78
2023/08/13 03:35:48;;;;;;;;;;;;;;;21.35;49.40;99873.94;5073079;28;20358;-78
2023/08/13 03:38:13;;;;;;;;;;;;;;;21.37;49.45;99871.03;5072848;28;19919;-78
2023/08/13 03:40:38;;;;;;;;;;;;;;;21.37;49.84;99871.03;5055056;28;19920;-78
2023/08/13 03:43:04;;;;;;;;;;;;;;;21.39;49.14;99871.59;5072968;28;19969;-78
2023/08/13 03:45:29;;;;;;;;;;;;;;;21.37;49.29;99877.22;5072985;28;19917;-78
2023/08/13 03:47:55;;;;;;;;;;;;;;;21.39;50.27;99876.97;5072942;28;19913;-78
2023/08/13 03:50:20;;;;;;;;;;;;;;;21.44;50.20;99872.50;5073602;28;20003;-78
2023/08/13 03:52:45;;;;;;;;;;;;;;;21.45;50.00;99873.31;5056238;28;19909;-78
2023/08/13 03:55:10;;;;;;;;;;;;;;;21.45;49.93;99866.06;5057422;28;20367;-79
2023/08/13 03:57:36;;;;;;;;;;;;;;;21.48;50.67;99873.66;5072743;28;19977;-78
2023/08/13 04:00:01;;;;;;;;;;;;;;;21.49;49.38;99864.53;5072022;28;20367;-78
2023/08/13 04:02:26;;;;;;;;;;;;;;;21.51;50.39;99864.28;5054920;28;19917;-78
2023/08/13 04:04:51;;;;;;;;;;;;;;;21.55;50.79;99865.44;5072427;28;20301;-78
2023/08/13 04:07:17;;;;;;;;;;;;;;;21.53;49.66;99868.38;5054476;28;19913;-78
2023/08/13 04:09:42;;;;;;;;;;;;;;;21.54;50.47;99870.00;5072155;28;19912;-78
2023/08/13 04:12:07;;;;;;;;;;;;;;;21.55;49.68;99865.44;5072289;28;20409;-78
2023/08/13 04:14:33;;;;;;;;;;;;;;;21.57;49.72;99871.41;5054151;28;19913;-78
2023/08/13 04:16:58;;;;;;;;;;;;;;;21.55;50.12;99874.34;5072236;28;20373;-78
2023/08/13 04:19:23;;;;;;;;;;;;;;;21.61;51.39;99879.81;5072480;28;20010;-78
2023/08/13 04:21:48;;;;;;;;;;;;;;;21.66;50.48;99871.84;5053988;28;19912;-78
2023/08/13 04:24:14;;;;;;;;;;;;;;;21.70;51.30;99875.69;5072199;28;19912;-78
2023/08/13 04:26:39;;;;;;;;;;;;;;;21.76;50.68;99882.75;5054051;28;19912;-78
2023/08/13 04:29:04;;;;;;;;;;;;;;;21.86;50.20;99874.88;5072081;28;20360;-78
2023/08/13 04:31:29;;;;;;;;;;;;;;;21.94;50.43;99879.84;5072250;28;19962;-78
2023/08/13 04:33:55;;;;;;;;;;;;;;;22.01;48.83;99877.81;5072239;28;19912;-79
2023/08/13 04:36:20;;;;;;;;;;;;;;;22.02;48.37;99882.13;5054226;28;19913;-79
2023/08/13 04:38:45;;;;;;;;;;;;;;;22.04;50.27;99884.59;5072213;28;19912;-79
2023/08/13 04:41:10;;;;;;;;;;;;;;;22.05;49.56;99886.22;5072226;28;20451;-79
2023/08/13 04:43:36;;;;;;;;;;;;;;;22.11;49.06;99888.75;5072446;28;19962;-79
2023/08/13 04:46:01;;;;;;;;;;;;;;;22.14;50.06;99884.75;5072049;28;19920;-77
2023/08/13 04:48:40;;;;;;;;;;;;;;;22.19;50.12;99885.66;5072173;28;19962;-79
2023/08/13 04:51:05;;;;;;;;;;;;;;;22.24;48.30;99889.47;5072044;28;20389;-78
2023/08/13 04:53:30;;;;;;;;;;;;;;;22.27;48.73;99889.00;5071906;28;19943;-78
2023/08/13 04:55:55;;;;;;;;;;;;;;;22.27;48.92;99884.44;5072002;28;19913;-78
2023/08/13 04:58:21;;;;;;;;;;;;;;;22.27;48.46;99889.81;5072025;28;19936;-78
2023/08/13 05:00:46;;;;;;;;;;;;;;;22.29;48.59;99898.44;5071967;28;19920;-78
2023/08/13 05:03:11;;;;;;;;;;;;;;;22.33;48.03;99886.16;5072229;28;20309;-78
2023/08/13 05:05:36;;;;;;;;;;;;;;;22.37;47.85;99887.28;5071555;28;19916;-79
2023/08/13 05:08:02;;;;;;;;;;;;;;;22.41;48.21;99895.69;5071657;28;20004;-78
2023/08/13 05:10:27;;;;;;;;;;;;;;;22.42;47.90;99891.94;5071681;28;20313;-78
2023/08/13 05:12:52;;;;;;;;;;;;;;;22.47;47.99;99895.50;5073542;28;19913;-76
2023/08/13 05:15:17;;;;;;;;;;;;;;;22.55;47.29;99891.59;5057733;28;20299;-78
2023/08/13 05:17:43;;;;;;;;;;;;;;;22.61;48.13;99889.78;5075878;28;19970;-78
2023/08/13 05:20:08;;;;;;;;;;;;;;;22.64;47.92;99895.47;5076115;28;19920;-76
2023/08/13 05:22:33;;;;;;;;;;;;;;;22.69;48.26;99900.13;5057727;28;20061;-78
2023/08/13 05:24:58;;;;;;;;;;;;;;;22.72;48.31;99900.44;5075780;28;19999;-78
2023/08/13 05:27:24;;;;;;;;;;;;;;;22.77;48.35;99891.59;5076060;28;19920;-78
2023/08/13 05:29:49;;;;;;;;;;;;;;;22.85;47.68;99895.78;5075925;28;19995;-77
2023/08/13 05:32:16;;;;;;;;;;;;;;;22.93;48.41;99892.66;5075523;28;20355;-76
2023/08/13 05:34:42;;;;;;;;;;;;;;;23.00;47.41;99894.09;5075372;28;19956;-78
2023/08/13 05:37:07;;;;;;;;;;;;;;;23.08;48.35;99890.97;5075323;28;20381;-79
2023/08/13 05:39:32;;;;;;;;;;;;;;;23.13;47.32;99888.34;5075265;28;19943;-79
2023/08/13 05:41:57;;;;;;;;;;;;;;;23.23;47.32;99892.22;5075139;28;20416;-78
2023/08/13 05:44:23;;;;;;;;;;;;;;;23.31;47.16;99884.50;5075222;28;19912;-78
2023/08/13 05:46:48;;;;;;;;;;;;;;;23.36;46.07;99887.25;5056993;28;19920;-78
2023/08/13 05:49:13;;;;;;;;;;;;;;;23.40;46.47;99892.94;5057301;28;19915;-77
2023/08/13 05:51:38;;;;;;;;;;;;;;;23.45;46.44;99885.72;5075298;28;20440;-78
2023/08/13 05:54:04;;;;;;;;;;;;;;;23.51;46.80;99889.28;5057107;28;19912;-78
2023/08/13 05:56:29;;;;;;;;;;;;;;;23.56;46.50;99896.66;5075331;28;19913;-78
2023/08/13 05:58:54;;;;;;;;;;;;;;;23.61;46.02;99900.22;5057063;28;20353;-78
2023/08/13 06:01:20;;;;;;;;;;;;;;;23.65;46.38;99895.94;5057407;28;19912;-77
2023/08/13 06:03:45;;;;;;;;;;;;;;;23.69;46.28;99891.66;5074851;28;20378;-76
2023/08/13 06:06:11;;;;;;;;;;;;;;;23.73;45.21;99886.56;5074921;28;19970;-78
2023/08/13 06:08:36;;;;;;;;;;;;;;;23.80;45.75;99895.28;5074978;28;19966;-76
2023/08/13 06:11:02;;;;;;;;;;;;;;;23.85;45.41;99889.13;5074817;28;19917;-78
2023/08/13 06:13:27;;;;;;;;;;;;;;;23.89;45.12;99904.53;5074931;28;20000;-78
2023/08/13 06:15:52;;;;;;;;;;;;;;;23.97;45.40;99901.38;5074863;28;20316;-76
2023/08/13 06:18:21;;;;;;;;;;;;;;;24.07;45.35;99901.44;5074702;28;19912;-77
2023/08/13 06:20:46;;;;;;;;;;;;;;;24.14;45.45;99901.22;5056335;28;20321;-77
2023/08/13 06:23:11;;;;;;;;;;;;;;;24.22;45.36;99908.03;5055733;28;19919;-78
2023/08/13 06:25:39;;;;;;;;;;;;;;;24.28;44.61;99907.03;5074267;28;19916;-79
2023/08/13 06:28:04;;;;;;;;;;;;;;;24.33;44.13;99910.56;5074382;28;19912;-78
2023/08/13 06:30:29;;;;;;;;;;;;;;;24.34;44.08;99914.91;5074279;28;19931;-79
2023/08/13 06:32:55;;;;;;;;;;;;;;;24.37;43.83;99906.28;5074402;28;19970;-78
2023/08/13 06:35:20;;;;;;;;;;;;;;;24.38;43.95;99913.31;5074546;28;20417;-79
2023/08/13 06:37:45;;;;;;;;;;;;;;;24.45;43.65;99904.19;5074615;28;20003;-78
2023/08/13 06:40:11;;;;;;;;;;;;;;;24.50;43.69;99918.53;5074473;28;19995;-77
2023/08/13 06:42:36;;;;;;;;;;;;;;;24.54;43.69;99911.56;5074329;28;19912;-78
2023/08/13 06:45:01;;;;;;;;;;;;;;;24.61;43.12;99916.72;5074107;28;19920;-78
2023/08/13 06:47:27;;;;;;;;;;;;;;;24.66;43.28;99919.44;5074437;28;19916;-78
2023/08/13 06:49:52;;;;;;;;;;;;;;;24.76;42.63;99916.81;5055997;28;20317;-78
2023/08/13 06:52:17;;;;;;;;;;;;;;;24.79;43.03;99921.69;5056451;28;19916;-78
2023/08/13 06:54:42;;;;;;;;;;;;;;;24.84;42.74;99918.19;5074089;28;19917;-78
2023/08/13 06:57:08;;;;;;;;;;;;;;;24.92;42.33;99917.69;5073993;28;19952;-78
2023/08/13 06:59:33;;;;;;;;;;;;;;;25.01;42.27;99916.16;5073602;28;19927;-78
2023/08/13 07:01:58;;;;;;;;;;;;;;;25.09;42.24;99915.63;5073709;28;19912;-78
2023/08/13 07:04:24;;;;;;;;;;;;;;;25.14;41.49;99906.75;5073638;28;19919;-77
2023/08/13 07:06:49;;;;;;;;;;;;;;;25.20;41.61;99917.31;5055716;28;19912;-77
2023/08/13 07:09:14;;;;;;;;;;;;;;;25.26;41.80;99912.72;5073683;28;20003;-78
2023/08/13 07:11:40;;;;;;;;;;;;;;;25.27;40.83;99914.38;5073532;28;19993;-76
2023/08/13 07:14:05;;;;;;;;;;;;;;;25.26;40.50;99908.13;5073406;28;19913;-77
2023/08/13 07:16:31;;;;;;;;;;;;;;;25.30;40.70;99909.25;5073503;28;19917;-76
2023/08/13 07:18:56;;;;;;;;;;;;;;;25.33;40.74;99905.22;5073316;28;20305;-78
2023/08/13 07:21:21;;;;;;;;;;;;;;;25.33;40.38;99911.44;5073289;28;19912;-79
2023/08/13 07:23:47;;;;;;;;;;;;;;;25.41;40.72;99906.59;5073317;28;19920;-78
2023/08/13 07:26:13;;;;;;;;;;;;;;;25.48;40.12;99899.84;5073199;28;19995;-78
2023/08/13 07:28:40;;;;;;;;;;;;;;;25.58;39.80;99901.75;5073092;28;19918;-78
2023/08/13 07:31:05;;;;;;;;;;;;;;;25.63;40.08;99905.28;5055085;28;19916;-79
2023/08/13 07:33:31;;;;;;;;;;;;;;;25.70;40.06;99902.34;5072848;28;19926;-78
2023/08/13 07:35:57;;;;;;;;;;;;;;;25.84;40.34;99895.31;5072388;28;19912;-77
2023/08/13 07:38:22;;;;;;;;;;;;;;;25.95;39.13;99891.53;5073110;28;19913;-78
2023/08/13 07:40:47;;;;;;;;;;;;;;;26.05;39.76;99889.94;5073073;28;19913;-77
2023/08/13 07:43:12;;;;;;;;;;;;;;;26.15;39.08;99888.03;5072922;28;19913;-78
2023/08/13 07:45:38;;;;;;;;;;;;;;;26.22;38.77;99891.28;5054926;28;19924;-78
2023/08/13 07:48:03;;;;;;;;;;;;;;;26.34;38.91;99887.50;5072710;28;19918;-78
2023/08/13 07:50:30;;;;;;;;;;;;;;;26.40;38.50;99879.09;5054696;28;19919;-78
2023/08/13 07:52:55;;;;;;;;;;;;;;;26.47;37.50;99873.38;5072675;28;19974;-75
2023/08/13 07:55:20;;;;;;;;;;;;;;;26.53;36.90;99878.53;5072555;28;19920;-76
2023/08/13 07:57:46;;;;;;;;;;;;;;;26.63;37.52;99883.09;5072694;28;19959;-77
2023/08/13 08:00:11;;;;;;;;;;;;;;;26.72;37.64;99876.03;5072446;28;20383;-77
2023/08/13 08:02:37;;;;;;;;;;;;;;;26.81;37.63;99876.28;5072492;28;20003;-77
2023/08/13 08:05:05;;;;;;;;;;;;;;;26.89;37.39;99875.72;5072467;28;19974;-78
2023/08/13 08:07:31;;;;;;;;;;;;;;;26.98;36.74;99865.94;5072668;28;19913;-79
2023/08/13 08:09:56;;;;;;;;;;;;;;;27.10;36.79;99871.84;5072397;28;19919;-77
2023/08/13 08:12:21;;;;;;;;;;;;;;;27.18;36.68;99863.13;5072281;28;19913;-76
2023/08/13 08:14:46;;;;;;;;;;;;;;;27.27;36.06;99863.34;5072333;28;19913;-77
2023/08/13 08:17:12;;;;;;;;;;;;;;;27.41;35.78;99860.84;5072150;28;20404;-77
2023/08/13 08:19:37;;;;;;;;;;;;;;;27.55;35.74;99856.44;5072088;28;19966;-77
2023/08/13 08:22:02;;;;;;;;;;;;;;;27.62;36.01;99851.53;5072092;28;19916;-78
2023/08/13 08:24:28;;;;;;;;;;;;;;;27.73;35.03;99855.78;5054037;28;19919;-78
2023/08/13 08:26:53;;;;;;;;;;;;;;;27.85;35.17;99849.97;5072212;28;19912;-78
2023/08/13 08:29:18;;;;;;;;;;;;;;;27.87;33.13;99844.28;5072161;28;19912;-77
2023/08/13 08:31:43;;;;;;;;;;;;;;;27.96;35.13;99845.28;5072054;28;19957;-78
2023/08/13 08:34:09;;;;;;;;;;;;;;;28.02;32.32;99846.84;5071974;28;19912;-78
2023/08/13 08:36:34;;;;;;;;;;;;;;;28.06;32.06;99840.56;5072070;28;19920;-76
2023/08/13 08:38:59;;;;;;;;;;;;;;;28.18;33.52;99840.97;5054109;28;19913;-78
2023/08/13 08:41:28;;;;;;;;;;;;;;;28.31;32.64;99827.88;5071946;28;19913;-78
2023/08/13 08:43:54;;;;;;;;;;;;;;;28.33;32.84;99826.50;5071652;28;19913;-78
2023/08/13 08:46:19;;;;;;;;;;;;;;;28.46;33.31;99839.38;5071597;28;19995;-78
2023/08/13 08:48:45;;;;;;;;;;;;;;;28.66;33.36;99835.63;5053949;28;19918;-77
2023/08/13 08:51:10;;;;;;;;;;;;;;;28.64;31.41;99835.09;5071941;28;19912;-78
2023/08/13 08:53:37;;;;;;;;;;;;;;;28.73;31.64;99827.91;5071724;28;19913;-78
2023/08/13 08:56:02;;;;;;;;;;;;;;;28.86;30.44;99825.63;5071959;28;19999;-78
2023/08/13 08:58:27;;;;;;;;;;;;;;;28.99;31.40;99830.38;5071818;28;19979;-77
2023/08/13 09:00:59;;;;;;;;;;;;;;;29.17;32.23;99828.75;5071562;28;19920;-77
2023/08/13 09:03:25;;;;;;;;;;;;;;;29.34;30.02;99823.59;5053731;28;19917;-78
2023/08/13 09:05:50;;;;;;;;;;;;;;;29.49;29.31;99823.41;5071773;28;20003;-77
2023/08/13 09:08:15;;;;;;;;;;;;;;;29.60;30.21;99813.97;5071836;28;19942;-78
2023/08/13 09:10:42;;;;;;;;;;;;;;;29.79;30.77;99818.59;5071925;28;20411;-76
2023/08/13 09:13:07;;;;;;;;;;;;;;;29.86;30.02;99822.53;5071789;28;19919;-76
2023/08/13 09:15:33;;;;;;;;;;;;;;;29.92;29.60;99802.28;5071660;28;19913;-77
2023/08/13 09:17:59;;;;;;;;;;;;;;;30.03;29.32;99811.91;5071751;28;20007;-78
2023/08/13 09:20:24;;;;;;;;;;;;;;;30.17;29.86;99803.75;5072218;28;19966;-79
2023/08/13 09:22:50;;;;;;;;;;;;;;;30.27;27.58;99800.84;5071803;28;19912;-78
2023/08/13 09:25:16;;;;;;;;;;;;;;;30.44;28.82;99794.78;5072162;28;19917;-75
2023/08/13 09:27:41;;;;;;;;;;;;;;;30.57;28.16;99796.72;5072452;28;20412;-78
2023/08/13 09:30:11;;;;;;;;;;;;;;;30.81;28.23;99793.78;5073314;28;19913;-78
2023/08/13 09:32:36;;;;;;;;;;;;;;;30.98;26.53;99791.22;5073274;28;19912;-78
2023/08/13 09:35:05;;;;;;;;;;;;;;;31.13;28.19;99786.53;5071727;28;19925;-78
2023/08/13 09:37:30;;;;;;;;;;;;;;;31.29;26.17;99791.38;5072044;28;19912;-76
2023/08/13 09:39:55;;;;;;;;;;;;;;;31.23;26.79;99786.38;5071996;28;20445;-78
2023/08/13 09:42:22;;;;;;;;;;;;;;;31.12;26.46;99776.75;5071704;28;19935;-77
2023/08/13 09:44:48;;;;;;;;;;;;;;;30.87;28.47;99770.75;5071325;28;19917;-76
2023/08/13 09:47:17;;;;;;;;;;;;;;;31.07;27.22;99785.03;5071876;28;19913;-76
2023/08/13 09:49:43;;;;;;;;;;;;;;;31.43;26.94;99785.06;5053674;28;19920;-76
2023/08/13 09:52:11;;;;;;;;;;;;;;;31.60;24.75;99780.53;5054173;28;19905;-78
2023/08/13 09:54:36;;;;;;;;;;;;;;;31.86;24.91;99785.34;5072487;28;20011;-77
2023/08/13 09:57:03;;;;;;;;;;;;;;;32.10;26.54;99783.09;5054376;28;20401;-77
2023/08/13 09:59:31;;;;;;;;;;;;;;;32.10;26.25;99791.28;5056064;28;20041;-78
2023/08/13 10:01:57;;;;;;;;;;;;;;;31.80;27.16;99781.16;5075162;28;19913;-78
2023/08/13 10:04:23;;;;;;;;;;;;;;;31.86;26.11;99775.25;5075005;28;19913;-78
2023/08/13 10:06:50;;;;;;;;;;;;;;;32.06;24.56;99781.31;5074917;28;20382;-79
2023/08/13 10:09:16;;;;;;;;;;;;;;;32.20;24.31;99774.63;5075052;28;20003;-78
2023/08/13 10:11:41;;;;;;;;;;;;;;;32.32;25.24;99768.56;5074974;28;19916;-79
2023/08/13 10:14:07;;;;;;;;;;;;;;;32.43;24.36;99775.34;5075106;28;19944;-77
2023/08/13 10:16:32;;;;;;;;;;;;;;;32.63;23.87;99773.16;5056860;28;19912;-77
2023/08/13 10:18:58;;;;;;;;;;;;;;;32.62;23.32;99774.28;5074691;28;20373;-78
2023/08/13 10:21:33;;;;;;;;;;;;;;;32.76;24.38;99774.97;5074755;28;19916;-77
2023/08/13 10:24:19;;;;;;;;;;;;;;;33.04;24.28;99770.84;5074778;28;19936;-77
2023/08/13 10:26:45;;;;;;;;;;;;;;;33.23;24.92;99765.03;5074177;28;20577;-77
2023/08/13 10:29:17;;;;;;;;;;;;;;;33.27;23.48;99767.94;5074679;28;19912;-76
2023/08/13 10:31:52;;;;;;;;;;;;;;;33.35;23.01;99762.47;5074688;28;20486;-77
2023/08/13 10:34:18;;;;;;;;;;;;;;;33.43;22.54;99755.38;5074498;28;19912;-79
2023/08/13 10:36:53;;;;;;;;;;;;;;;33.53;23.22;99755.06;5074444;28;20003;-76
2023/08/13 10:39:32;;;;;;;;;;;;;;;33.64;22.74;99759.06;5074472;28;19966;-79
2023/08/13 10:41:57;;;;;;;;;;;;;;;33.64;22.57;99753.59;5074306;28;19919;-78
2023/08/13 10:44:32;;;;;;;;;;;;;;;33.85;22.36;99737.28;5074143;28;20324;-78
2023/08/13 10:46:58;;;;;;;;;;;;;;;33.87;23.36;99740.50;5056093;28;19919;-78
2023/08/13 10:49:27;;;;;;;;;;;;;;;33.93;22.44;99739.19;5056530;28;19912;-77
2023/08/13 10:51:52;;;;;;;;;;;;;;;33.94;22.90;99732.56;5074816;28;20423;-77
2023/08/13 10:54:17;;;;;;;;;;;;;;;34.07;21.88;99717.03;5074137;28;19913;-76
2023/08/13 10:56:45;;;;;;;;;;;;;;;34.15;22.85;99738.13;5074029;28;19965;-78
2023/08/13 10:59:10;;;;;;;;;;;;;;;34.15;21.43;99727.16;5055879;28;19999;-78
2023/08/13 11:01:55;;;;;;;;;;;;;;;34.30;22.41;99714.84;5073871;28;19947;-77
2023/08/13 11:04:21;;;;;;;;;;;;;;;34.57;22.44;99722.59;5073844;28;19911;-78
2023/08/13 11:06:47;;;;;;;;;;;;;;;34.59;21.92;99722.25;5073941;28;20309;-76
2023/08/13 11:09:12;;;;;;;;;;;;;;;34.46;20.16;99731.56;5073935;28;19912;-77
2023/08/13 11:11:38;;;;;;;;;;;;;;;34.56;21.52;99731.97;5055793;28;19912;-77
2023/08/13 11:14:03;;;;;;;;;;;;;;;34.75;21.21;99720.53;5073894;28;19962;-76
2023/08/13 11:16:28;;;;;;;;;;;;;;;34.94;20.90;99714.63;5073734;28;19952;-77
2023/08/13 11:18:54;;;;;;;;;;;;;;;34.93;21.52;99724.81;5055789;28;19913;-77
2023/08/13 11:21:20;;;;;;;;;;;;;;;35.05;21.48;99718.56;5055618;28;20450;-79
2023/08/13 11:23:45;;;;;;;;;;;;;;;35.22;21.21;99718.41;5055856;28;19912;-78
2023/08/13 11:26:10;;;;;;;;;;;;;;;35.28;21.60;99717.03;5073640;28;19920;-76
2023/08/13 11:28:36;;;;;;;;;;;;;;;35.15;20.25;99720.88;5073701;28;19936;-76
2023/08/13 11:31:01;;;;;;;;;;;;;;;34.84;21.42;99706.78;5055552;28;19916;-76
2023/08/13 11:33:26;;;;;;;;;;;;;;;34.90;21.41;99714.47;5073415;28;19913;-76
2023/08/13 11:35:51;;;;;;;;;;;;;;;35.17;20.63;99715.06;5073525;28;19912;-78
2023/08/13 11:38:17;;;;;;;;;;;;;;;35.11;20.71;99714.47;5073251;28;19916;-77
2023/08/13 11:40:42;;;;;;;;;;;;;;;35.10;20.92;99699.13;5073740;28;19908;-77
2023/08/13 11:43:11;;;;;;;;;;;;;;;35.19;21.32;99686.13;5073494;28;20305;-76
2023/08/13 11:45:36;;;;;;;;;;;;;;;35.31;21.20;99682.63;5055261;28;19916;-77
2023/08/13 11:48:09;;;;;;;;;;;;;;;35.13;21.06;99682.00;5073320;28;19969;-76
2023/08/13 11:50:34;;;;;;;;;;;;;;;35.13;20.85;99676.50;5073070;28;19956;-76
2023/08/13 11:53:02;;;;;;;;;;;;;;;35.37;21.25;99675.00;5055396;28;20316;-76
2023/08/13 11:55:28;;;;;;;;;;;;;;;35.47;20.88;99683.59;5072976;28;19935;-78
2023/08/13 11:57:55;;;;;;;;;;;;;;;35.43;20.52;99679.13;5072733;28;20456;-77
2023/08/13 12:00:20;;;;;;;;;;;;;;;35.64;20.62;99664.16;5072474;28;19924;-78
2023/08/13 12:02:47;;;;;;;;;;;;;;;35.75;20.35;99663.75;5072632;28;20021;-77
2023/08/13 12:05:12;;;;;;;;;;;;;;;35.80;20.12;99666.25;5072598;28;19916;-76
2023/08/13 12:07:40;;;;;;;;;;;;;;;35.84;20.19;99665.25;5072769;28;19919;-77
2023/08/13 12:10:08;;;;;;;;;;;;;;;35.85;19.87;99661.38;5072308;28;20336;-78
2023/08/13 12:12:33;;;;;;;;;;;;;;;36.05;19.28;99650.59;5055125;28;20343;-79
2023/08/13 12:14:58;;;;;;;;;;;;;;;36.01;20.25;99655.97;5073431;28;20304;-77
2023/08/13 12:17:23;;;;;;;;;;;;;;;36.11;19.69;99655.50;5072646;28;19943;-77
2023/08/13 12:19:48;;;;;;;;;;;;;;;36.20;20.02;99647.94;5071928;28;19966;-78
2023/08/13 12:22:14;;;;;;;;;;;;;;;36.12;20.50;99640.63;5071585;28;20418;-77
2023/08/13 12:24:39;;;;;;;;;;;;;;;36.17;19.66;99637.63;5054153;28;19912;-78
2023/08/13 12:27:04;;;;;;;;;;;;;;;36.35;19.04;99646.44;5054071;28;19912;-78
2023/08/13 12:29:30;;;;;;;;;;;;;;;36.39;19.45;99655.59;5071838;28;19962;-78
2023/08/13 12:31:55;;;;;;;;;;;;;;;36.08;19.37;99636.97;5071923;28;19961;-78
2023/08/13 12:34:20;;;;;;;;;;;;;;;35.83;20.22;99644.44;5071807;28;19916;-78
2023/08/13 12:36:45;;;;;;;;;;;;;;;35.67;19.81;99638.78;5053960;28;19916;-77
2023/08/13 12:39:11;;;;;;;;;;;;;;;35.74;20.18;99640.16;5053785;28;20042;-77
2023/08/13 12:41:36;;;;;;;;;;;;;;;35.50;19.40;99638.19;5071699;28;19913;-78